sensor_id;sensor_type;location;lat;lon;timestamp;P1;durP1;ratioP1;P2;durP2;ratioP2
70667;SDS011;58242;51.250;-1.118;2022-12-18T00:00:04;5.07;;;4.50;;
70667;SDS011;58242;51.250;-1.118;2022-12-18T00:02:30;6.60;;;5.18;;
70667;SDS011;58242;51.250;-1.118;2022-12-18T00:04:56;6.47;;;5.10;;
70667;SDS011;58242;51.250;-1.118;2022-12-18T00:07:21;5.43;;;4.85;;
70667;SDS011;58242;51.250;-1.118;2022-12-18T00:09:46;5.90;;;5.05;;
70667;SDS011;58242;51.250;-1.118;2022-12-18T00:12:11;6.82;;;4.70;;
70667;SDS011;58242;51.250;-1.118;2022-12-18T00:14:37;6.88;;;5.25;;
70667;SDS011;58242;51.250;-1.118;2022-12-18T00:17:02;6.57;;;5.10;;
70667;SDS011;58242;51.250;-1.118;2022-12-18T00:19:27;7.57;;;5.65;;
70667;SDS011;58242;51.250;-1.118;2022-12-18T00:21:53;5.00;;;4.50;;
70667;SDS011;58242;51.250;-1.118;2022-12-18T00:24:18;6.78;;;5.18;;
70667;SDS011;58242;51.250;-1.118;2022-12-18T00:26:43;7.55;;;5.72;;
70667;SDS011;58242;51.250;-1.118;2022-12-18T00:29:12;6.15;;;5.55;;
70667;SDS011;58242;51.250;-1.118;2022-12-18T00:31:39;6.00;;;4.93;;
70667;SDS011;58242;51.250;-1.118;2022-12-18T00:34:05;8.55;;;5.95;;
70667;SDS011;58242;51.250;-1.118;2022-12-18T00:36:32;7.15;;;5.43;;
70667;SDS011;58242;51.250;-1.118;2022-12-18T00:38:59;7.55;;;5.55;;
70667;SDS011;58242;51.250;-1.118;2022-12-18T00:41:26;6.28;;;5.18;;
70667;SDS011;58242;51.250;-1.118;2022-12-18T00:44:11;5.35;;;4.85;;
70667;SDS011;58242;51.250;-1.118;2022-12-18T00:46:39;4.28;;;3.95;;
70667;SDS011;58242;51.250;-1.118;2022-12-18T00:49:05;5.40;;;4.90;;
70667;SDS011;58242;51.250;-1.118;2022-12-18T00:51:31;5.72;;;5.22;;
70667;SDS011;58242;51.250;-1.118;2022-12-18T00:53:56;6.20;;;4.57;;
70667;SDS011;58242;51.250;-1.118;2022-12-18T00:56:22;5.07;;;4.18;;
70667;SDS011;58242;51.250;-1.118;2022-12-18T00:58:48;5.25;;;4.63;;
70667;SDS011;58242;51.250;-1.118;2022-12-18T01:01:14;4.78;;;4.20;;
70667;SDS011;58242;51.250;-1.118;2022-12-18T01:03:40;5.63;;;4.97;;
70667;SDS011;58242;51.250;-1.118;2022-12-18T01:06:06;5.10;;;4.60;;
70667;SDS011;58242;51.250;-1.118;2022-12-18T01:08:32;6.72;;;5.22;;
70667;SDS011;58242;51.250;-1.118;2022-12-18T01:10:58;4.88;;;4.38;;
70667;SDS011;58242;51.250;-1.118;2022-12-18T01:13:23;4.43;;;4.05;;
70667;SDS011;58242;51.250;-1.118;2022-12-18T01:15:49;4.68;;;3.75;;
70667;SDS011;58242;51.250;-1.118;2022-12-18T01:18:14;5.18;;;4.72;;
70667;SDS011;58242;51.250;-1.118;2022-12-18T01:20:40;4.88;;;4.40;;
70667;SDS011;58242;51.250;-1.118;2022-12-18T01:23:05;4.47;;;4.07;;
70667;SDS011;58242;51.250;-1.118;2022-12-18T01:25:31;5.88;;;5.28;;
70667;SDS011;58242;51.250;-1.118;2022-12-18T01:27:56;5.57;;;4.57;;
70667;SDS011;58242;51.250;-1.118;2022-12-18T01:30:21;5.70;;;4.50;;
70667;SDS011;58242;51.250;-1.118;2022-12-18T01:32:47;4.45;;;4.05;;
70667;SDS011;58242;51.250;-1.118;2022-12-18T01:35:12;5.82;;;4.47;;
70667;SDS011;58242;51.250;-1.118;2022-12-18T01:37:37;5.03;;;3.97;;
70667;SDS011;58242;51.250;-1.118;2022-12-18T01:40:03;5.32;;;4.78;;
70667;SDS011;58242;51.250;-1.118;2022-12-18T01:42:29;5.28;;;4.75;;
70667;SDS011;58242;51.250;-1.118;2022-12-18T01:47:30;5.13;;;4.63;;
70667;SDS011;58242;51.250;-1.118;2022-12-18T01:50:18;4.82;;;4.35;;
70667;SDS011;58242;51.250;-1.118;2022-12-18T01:53:31;6.78;;;5.88;;
70667;SDS011;58242;51.250;-1.118;2022-12-18T01:55:37;9.13;;;7.50;;
70667;SDS011;58242;51.250;-1.118;2022-12-18T01:58:07;7.72;;;6.93;;
70667;SDS011;58242;51.250;-1.118;2022-12-18T02:00:33;7.13;;;5.85;;
70667;SDS011;58242;51.250;-1.118;2022-12-18T02:02:59;7.85;;;5.85;;
70667;SDS011;58242;51.250;-1.118;2022-12-18T02:08:35;5.80;;;4.53;;
70667;SDS011;58242;51.250;-1.118;2022-12-18T02:11:08;5.93;;;4.75;;
70667;SDS011;58242;51.250;-1.118;2022-12-18T02:27:44;4.80;;;4.35;;
70667;SDS011;58242;51.250;-1.118;2022-12-18T02:32:41;3.90;;;3.60;;
70667;SDS011;58242;51.250;-1.118;2022-12-18T02:35:14;4.80;;;4.40;;
70667;SDS011;58242;51.250;-1.118;2022-12-18T02:37:42;5.78;;;4.75;;
70667;SDS011;58242;51.250;-1.118;2022-12-18T02:40:10;4.88;;;4.35;;
70667;SDS011;58242;51.250;-1.118;2022-12-18T02:42:37;4.38;;;3.97;;
70667;SDS011;58242;51.250;-1.118;2022-12-18T02:45:03;4.38;;;3.97;;
70667;SDS011;58242;51.250;-1.118;2022-12-18T02:47:29;5.13;;;4.63;;
70667;SDS011;58242;51.250;-1.118;2022-12-18T03:00:23;4.63;;;4.10;;
70667;SDS011;58242;51.250;-1.118;2022-12-18T03:03:05;5.22;;;4.40;;
70667;SDS011;58242;51.250;-1.118;2022-12-18T03:08:07;5.20;;;4.70;;
70667;SDS011;58242;51.250;-1.118;2022-12-18T03:10:39;5.38;;;4.78;;
70667;SDS011;58242;51.250;-1.118;2022-12-18T03:13:23;5.05;;;4.40;;
70667;SDS011;58242;51.250;-1.118;2022-12-18T03:15:52;5.30;;;4.80;;
70667;SDS011;58242;51.250;-1.118;2022-12-18T03:18:33;5.53;;;4.32;;
70667;SDS011;58242;51.250;-1.118;2022-12-18T03:21:03;8.52;;;5.82;;
70667;SDS011;58242;51.250;-1.118;2022-12-18T03:23:32;4.90;;;4.50;;
70667;SDS011;58242;51.250;-1.118;2022-12-18T03:26:02;6.15;;;5.55;;
70667;SDS011;58242;51.250;-1.118;2022-12-18T03:28:32;6.75;;;5.20;;
70667;SDS011;58242;51.250;-1.118;2022-12-18T03:31:01;7.18;;;6.13;;
70667;SDS011;58242;51.250;-1.118;2022-12-18T03:33:30;6.82;;;5.50;;
70667;SDS011;58242;51.250;-1.118;2022-12-18T03:36:01;9.43;;;7.20;;
70667;SDS011;58242;51.250;-1.118;2022-12-18T03:38:26;9.10;;;6.32;;
70667;SDS011;58242;51.250;-1.118;2022-12-18T03:40:58;8.27;;;6.20;;
70667;SDS011;58242;51.250;-1.118;2022-12-18T03:46:02;8.70;;;6.35;;
70667;SDS011;58242;51.250;-1.118;2022-12-18T03:48:41;9.43;;;7.13;;
70667;SDS011;58242;51.250;-1.118;2022-12-18T03:52:10;11.38;;;7.85;;
70667;SDS011;58242;51.250;-1.118;2022-12-18T03:54:16;7.13;;;6.43;;
70667;SDS011;58242;51.250;-1.118;2022-12-18T03:56:44;11.75;;;7.65;;
70667;SDS011;58242;51.250;-1.118;2022-12-18T03:59:12;9.50;;;7.63;;
70667;SDS011;58242;51.250;-1.118;2022-12-18T04:01:42;10.88;;;7.63;;
70667;SDS011;58242;51.250;-1.118;2022-12-18T04:04:14;10.63;;;7.82;;
70667;SDS011;58242;51.250;-1.118;2022-12-18T04:06:41;11.98;;;9.05;;
70667;SDS011;58242;51.250;-1.118;2022-12-18T04:09:08;14.50;;;8.85;;
70667;SDS011;58242;51.250;-1.118;2022-12-18T04:11:34;12.40;;;8.93;;
70667;SDS011;58242;51.250;-1.118;2022-12-18T04:13:59;13.82;;;9.40;;
70667;SDS011;58242;51.250;-1.118;2022-12-18T04:16:25;10.75;;;7.50;;
70667;SDS011;58242;51.250;-1.118;2022-12-18T04:18:52;8.23;;;7.10;;
70667;SDS011;58242;51.250;-1.118;2022-12-18T04:21:17;10.70;;;7.43;;
70667;SDS011;58242;51.250;-1.118;2022-12-18T04:23:43;9.60;;;7.10;;
70667;SDS011;58242;51.250;-1.118;2022-12-18T04:26:08;12.82;;;8.07;;
70667;SDS011;58242;51.250;-1.118;2022-12-18T04:28:33;11.05;;;8.07;;
70667;SDS011;58242;51.250;-1.118;2022-12-18T04:30:59;9.95;;;7.47;;
70667;SDS011;58242;51.250;-1.118;2022-12-18T04:33:24;9.57;;;7.50;;
70667;SDS011;58242;51.250;-1.118;2022-12-18T04:35:49;9.30;;;6.97;;
70667;SDS011;58242;51.250;-1.118;2022-12-18T04:38:15;9.65;;;7.75;;
70667;SDS011;58242;51.250;-1.118;2022-12-18T04:40:40;10.05;;;7.47;;
70667;SDS011;58242;51.250;-1.118;2022-12-18T04:43:06;9.48;;;7.28;;
70667;SDS011;58242;51.250;-1.118;2022-12-18T04:45:31;10.20;;;8.07;;
70667;SDS011;58242;51.250;-1.118;2022-12-18T04:47:57;14.43;;;9.13;;
70667;SDS011;58242;51.250;-1.118;2022-12-18T04:50:23;13.63;;;9.40;;
70667;SDS011;58242;51.250;-1.118;2022-12-18T04:52:49;12.40;;;9.15;;
70667;SDS011;58242;51.250;-1.118;2022-12-18T04:55:14;10.45;;;8.32;;
70667;SDS011;58242;51.250;-1.118;2022-12-18T04:57:40;10.20;;;8.77;;
70667;SDS011;58242;51.250;-1.118;2022-12-18T05:00:05;13.55;;;9.05;;
70667;SDS011;58242;51.250;-1.118;2022-12-18T05:02:32;10.80;;;7.75;;
70667;SDS011;58242;51.250;-1.118;2022-12-18T05:04:58;14.15;;;9.10;;
70667;SDS011;58242;51.250;-1.118;2022-12-18T05:07:23;10.48;;;8.10;;
70667;SDS011;58242;51.250;-1.118;2022-12-18T05:09:49;10.20;;;7.32;;
70667;SDS011;58242;51.250;-1.118;2022-12-18T05:12:14;11.73;;;7.95;;
70667;SDS011;58242;51.250;-1.118;2022-12-18T05:14:39;11.93;;;8.25;;
70667;SDS011;58242;51.250;-1.118;2022-12-18T05:17:05;9.95;;;7.72;;
70667;SDS011;58242;51.250;-1.118;2022-12-18T05:19:30;11.43;;;8.05;;
70667;SDS011;58242;51.250;-1.118;2022-12-18T05:21:55;10.77;;;7.88;;
70667;SDS011;58242;51.250;-1.118;2022-12-18T05:24:22;8.35;;;6.60;;
70667;SDS011;58242;51.250;-1.118;2022-12-18T05:26:48;8.23;;;7.13;;
70667;SDS011;58242;51.250;-1.118;2022-12-18T05:29:13;8.13;;;6.18;;
70667;SDS011;58242;51.250;-1.118;2022-12-18T05:31:38;9.13;;;6.20;;
70667;SDS011;58242;51.250;-1.118;2022-12-18T05:34:04;8.00;;;6.15;;
70667;SDS011;58242;51.250;-1.118;2022-12-18T05:36:29;5.50;;;4.95;;
70667;SDS011;58242;51.250;-1.118;2022-12-18T05:38:55;6.28;;;5.32;;
70667;SDS011;58242;51.250;-1.118;2022-12-18T05:41:20;6.00;;;5.40;;
70667;SDS011;58242;51.250;-1.118;2022-12-18T05:43:45;5.35;;;4.85;;
70667;SDS011;58242;51.250;-1.118;2022-12-18T05:46:12;5.50;;;5.00;;
70667;SDS011;58242;51.250;-1.118;2022-12-18T05:48:39;5.80;;;5.20;;
70667;SDS011;58242;51.250;-1.118;2022-12-18T05:51:05;6.07;;;5.15;;
70667;SDS011;58242;51.250;-1.118;2022-12-18T05:53:33;5.43;;;4.93;;
70667;SDS011;58242;51.250;-1.118;2022-12-18T05:56:00;7.00;;;6.10;;
70667;SDS011;58242;51.250;-1.118;2022-12-18T05:58:27;7.07;;;5.85;;
70667;SDS011;58242;51.250;-1.118;2022-12-18T06:00:52;7.03;;;6.32;;
70667;SDS011;58242;51.250;-1.118;2022-12-18T06:03:18;10.00;;;7.50;;
70667;SDS011;58242;51.250;-1.118;2022-12-18T06:05:43;12.18;;;8.65;;
70667;SDS011;58242;51.250;-1.118;2022-12-18T06:08:10;10.68;;;8.85;;
70667;SDS011;58242;51.250;-1.118;2022-12-18T06:10:36;9.48;;;8.02;;
70667;SDS011;58242;51.250;-1.118;2022-12-18T06:13:02;10.13;;;7.72;;
70667;SDS011;58242;51.250;-1.118;2022-12-18T06:15:28;9.35;;;7.03;;
70667;SDS011;58242;51.250;-1.118;2022-12-18T06:17:53;9.77;;;7.38;;
70667;SDS011;58242;51.250;-1.118;2022-12-18T06:20:19;10.40;;;8.60;;
70667;SDS011;58242;51.250;-1.118;2022-12-18T06:22:44;8.25;;;6.85;;
70667;SDS011;58242;51.250;-1.118;2022-12-18T06:25:10;11.13;;;7.00;;
70667;SDS011;58242;51.250;-1.118;2022-12-18T06:27:36;7.55;;;6.75;;
70667;SDS011;58242;51.250;-1.118;2022-12-18T06:30:01;9.63;;;8.02;;
70667;SDS011;58242;51.250;-1.118;2022-12-18T06:32:27;10.13;;;8.45;;
70667;SDS011;58242;51.250;-1.118;2022-12-18T06:34:53;11.00;;;7.43;;
70667;SDS011;58242;51.250;-1.118;2022-12-18T06:37:20;7.05;;;6.38;;
70667;SDS011;58242;51.250;-1.118;2022-12-18T06:39:45;7.00;;;6.25;;
70667;SDS011;58242;51.250;-1.118;2022-12-18T06:42:11;11.00;;;7.43;;
70667;SDS011;58242;51.250;-1.118;2022-12-18T06:44:36;9.68;;;7.40;;
70667;SDS011;58242;51.250;-1.118;2022-12-18T06:47:02;8.57;;;7.25;;
70667;SDS011;58242;51.250;-1.118;2022-12-18T06:49:27;7.50;;;6.80;;
70667;SDS011;58242;51.250;-1.118;2022-12-18T06:51:53;7.05;;;6.35;;
70667;SDS011;58242;51.250;-1.118;2022-12-18T06:54:18;7.85;;;6.35;;
70667;SDS011;58242;51.250;-1.118;2022-12-18T06:56:45;7.10;;;6.40;;
70667;SDS011;58242;51.250;-1.118;2022-12-18T06:59:12;6.88;;;6.15;;
70667;SDS011;58242;51.250;-1.118;2022-12-18T07:01:37;7.97;;;6.55;;
70667;SDS011;58242;51.250;-1.118;2022-12-18T07:04:03;8.82;;;7.22;;
70667;SDS011;58242;51.250;-1.118;2022-12-18T07:06:28;6.72;;;6.03;;
70667;SDS011;58242;51.250;-1.118;2022-12-18T07:08:53;6.28;;;5.63;;
70667;SDS011;58242;51.250;-1.118;2022-12-18T07:11:19;8.38;;;6.53;;
70667;SDS011;58242;51.250;-1.118;2022-12-18T07:13:45;6.15;;;5.55;;
70667;SDS011;58242;51.250;-1.118;2022-12-18T07:16:12;5.95;;;5.38;;
70667;SDS011;58242;51.250;-1.118;2022-12-18T07:18:38;7.07;;;5.72;;
70667;SDS011;58242;51.250;-1.118;2022-12-18T07:21:04;7.20;;;5.40;;
70667;SDS011;58242;51.250;-1.118;2022-12-18T07:23:34;6.30;;;5.70;;
70667;SDS011;58242;51.250;-1.118;2022-12-18T07:26:03;5.50;;;5.00;;
70667;SDS011;58242;51.250;-1.118;2022-12-18T07:28:30;6.28;;;5.72;;
70667;SDS011;58242;51.250;-1.118;2022-12-18T07:30:56;5.72;;;5.10;;
70667;SDS011;58242;51.250;-1.118;2022-12-18T07:33:22;5.50;;;5.00;;
70667;SDS011;58242;51.250;-1.118;2022-12-18T07:35:47;6.38;;;5.07;;
70667;SDS011;58242;51.250;-1.118;2022-12-18T07:38:12;5.28;;;4.78;;
70667;SDS011;58242;51.250;-1.118;2022-12-18T07:40:38;5.00;;;4.50;;
70667;SDS011;58242;51.250;-1.118;2022-12-18T07:43:03;5.00;;;4.50;;
70667;SDS011;58242;51.250;-1.118;2022-12-18T07:45:28;4.75;;;4.30;;
70667;SDS011;58242;51.250;-1.118;2022-12-18T07:47:55;5.30;;;4.60;;
70667;SDS011;58242;51.250;-1.118;2022-12-18T07:50:20;4.80;;;4.38;;
70667;SDS011;58242;51.250;-1.118;2022-12-18T07:52:45;5.65;;;4.38;;
70667;SDS011;58242;51.250;-1.118;2022-12-18T07:55:11;3.97;;;3.67;;
70667;SDS011;58242;51.250;-1.118;2022-12-18T07:57:36;4.47;;;4.10;;
70667;SDS011;58242;51.250;-1.118;2022-12-18T08:00:02;4.68;;;4.28;;
70667;SDS011;58242;51.250;-1.118;2022-12-18T08:02:30;5.25;;;4.75;;
70667;SDS011;58242;51.250;-1.118;2022-12-18T08:04:55;4.72;;;4.32;;
70667;SDS011;58242;51.250;-1.118;2022-12-18T08:07:21;4.65;;;4.25;;
70667;SDS011;58242;51.250;-1.118;2022-12-18T08:09:46;4.53;;;4.13;;
70667;SDS011;58242;51.250;-1.118;2022-12-18T08:12:11;4.70;;;4.30;;
70667;SDS011;58242;51.250;-1.118;2022-12-18T08:14:36;5.05;;;4.38;;
70667;SDS011;58242;51.250;-1.118;2022-12-18T08:17:02;6.07;;;5.47;;
70667;SDS011;58242;51.250;-1.118;2022-12-18T08:19:27;3.95;;;3.65;;
70667;SDS011;58242;51.250;-1.118;2022-12-18T08:21:52;4.32;;;3.92;;
70667;SDS011;58242;51.250;-1.118;2022-12-18T08:24:18;5.60;;;4.35;;
70667;SDS011;58242;51.250;-1.118;2022-12-18T08:26:43;4.13;;;3.83;;
70667;SDS011;58242;51.250;-1.118;2022-12-18T08:29:09;5.43;;;4.93;;
70667;SDS011;58242;51.250;-1.118;2022-12-18T08:31:35;7.30;;;5.70;;
70667;SDS011;58242;51.250;-1.118;2022-12-18T08:34:00;6.22;;;5.50;;
70667;SDS011;58242;51.250;-1.118;2022-12-18T08:36:25;6.35;;;5.00;;
70667;SDS011;58242;51.250;-1.118;2022-12-18T08:38:51;5.18;;;4.65;;
70667;SDS011;58242;51.250;-1.118;2022-12-18T08:41:17;6.30;;;4.65;;
70667;SDS011;58242;51.250;-1.118;2022-12-18T08:43:43;4.88;;;4.45;;
70667;SDS011;58242;51.250;-1.118;2022-12-18T08:46:30;5.95;;;5.35;;
70667;SDS011;58242;51.250;-1.118;2022-12-18T08:49:01;4.95;;;4.05;;
70667;SDS011;58242;51.250;-1.118;2022-12-18T08:51:26;6.05;;;4.53;;
70667;SDS011;58242;51.250;-1.118;2022-12-18T08:53:52;6.80;;;4.78;;
70667;SDS011;58242;51.250;-1.118;2022-12-18T08:56:17;6.85;;;6.15;;
70667;SDS011;58242;51.250;-1.118;2022-12-18T08:58:42;7.90;;;6.35;;
70667;SDS011;58242;51.250;-1.118;2022-12-18T09:01:09;8.90;;;6.68;;
70667;SDS011;58242;51.250;-1.118;2022-12-18T09:03:35;8.00;;;6.25;;
70667;SDS011;58242;51.250;-1.118;2022-12-18T09:06:01;8.48;;;6.35;;
70667;SDS011;58242;51.250;-1.118;2022-12-18T09:08:27;5.53;;;5.00;;
70667;SDS011;58242;51.250;-1.118;2022-12-18T09:10:53;5.80;;;4.90;;
70667;SDS011;58242;51.250;-1.118;2022-12-18T09:13:18;5.78;;;5.15;;
70667;SDS011;58242;51.250;-1.118;2022-12-18T09:15:45;6.18;;;5.57;;
70667;SDS011;58242;51.250;-1.118;2022-12-18T09:18:12;7.07;;;5.43;;
70667;SDS011;58242;51.250;-1.118;2022-12-18T09:20:39;7.13;;;5.63;;
70667;SDS011;58242;51.250;-1.118;2022-12-18T09:23:05;8.90;;;6.50;;
70667;SDS011;58242;51.250;-1.118;2022-12-18T09:25:31;7.05;;;5.97;;
70667;SDS011;58242;51.250;-1.118;2022-12-18T09:28:01;7.88;;;6.78;;
70667;SDS011;58242;51.250;-1.118;2022-12-18T09:30:27;8.77;;;6.57;;
70667;SDS011;58242;51.250;-1.118;2022-12-18T09:32:54;9.63;;;7.07;;
70667;SDS011;58242;51.250;-1.118;2022-12-18T09:35:20;8.63;;;7.38;;
70667;SDS011;58242;51.250;-1.118;2022-12-18T09:37:45;9.80;;;7.25;;
70667;SDS011;58242;51.250;-1.118;2022-12-18T09:40:14;8.45;;;7.25;;
70667;SDS011;58242;51.250;-1.118;2022-12-18T09:42:43;8.80;;;7.28;;
70667;SDS011;58242;51.250;-1.118;2022-12-18T09:45:13;11.30;;;7.88;;
70667;SDS011;58242;51.250;-1.118;2022-12-18T09:47:40;9.90;;;7.63;;
70667;SDS011;58242;51.250;-1.118;2022-12-18T09:50:19;12.93;;;8.65;;
70667;SDS011;58242;51.250;-1.118;2022-12-18T09:52:48;12.98;;;9.10;;
70667;SDS011;58242;51.250;-1.118;2022-12-18T09:55:37;11.57;;;7.40;;
70667;SDS011;58242;51.250;-1.118;2022-12-18T09:58:07;11.85;;;6.95;;
70667;SDS011;58242;51.250;-1.118;2022-12-18T10:00:35;11.18;;;7.95;;
70667;SDS011;58242;51.250;-1.118;2022-12-18T10:03:02;10.55;;;8.20;;
70667;SDS011;58242;51.250;-1.118;2022-12-18T10:08:13;12.15;;;7.95;;
70667;SDS011;58242;51.250;-1.118;2022-12-18T10:10:51;11.50;;;8.27;;
70667;SDS011;58242;51.250;-1.118;2022-12-18T10:18:33;11.15;;;7.78;;
70667;SDS011;58242;51.250;-1.118;2022-12-18T10:21:08;10.60;;;7.70;;
70667;SDS011;58242;51.250;-1.118;2022-12-18T10:26:12;12.48;;;7.78;;
70667;SDS011;58242;51.250;-1.118;2022-12-18T10:28:38;9.65;;;8.35;;
70667;SDS011;58242;51.250;-1.118;2022-12-18T10:31:06;10.88;;;7.43;;
70667;SDS011;58242;51.250;-1.118;2022-12-18T10:33:33;11.18;;;8.32;;
70667;SDS011;58242;51.250;-1.118;2022-12-18T10:35:59;13.30;;;9.18;;
70667;SDS011;58242;51.250;-1.118;2022-12-18T10:38:28;12.63;;;7.88;;
70667;SDS011;58242;51.250;-1.118;2022-12-18T10:43:27;15.98;;;9.27;;
70667;SDS011;58242;51.250;-1.118;2022-12-18T10:48:47;14.23;;;10.00;;
70667;SDS011;58242;51.250;-1.118;2022-12-18T10:51:21;9.63;;;8.10;;
70667;SDS011;58242;51.250;-1.118;2022-12-18T10:53:57;11.82;;;8.23;;
70667;SDS011;58242;51.250;-1.118;2022-12-18T10:56:26;11.57;;;8.00;;
70667;SDS011;58242;51.250;-1.118;2022-12-18T10:58:57;10.32;;;8.40;;
70667;SDS011;58242;51.250;-1.118;2022-12-18T11:02:23;9.05;;;7.50;;
70667;SDS011;58242;51.250;-1.118;2022-12-18T11:04:25;14.05;;;10.82;;
70667;SDS011;58242;51.250;-1.118;2022-12-18T11:09:29;13.65;;;9.63;;
70667;SDS011;58242;51.250;-1.118;2022-12-18T11:12:00;10.45;;;8.25;;
70667;SDS011;58242;51.250;-1.118;2022-12-18T11:14:29;13.60;;;8.70;;
70667;SDS011;58242;51.250;-1.118;2022-12-18T11:16:57;13.00;;;9.45;;
70667;SDS011;58242;51.250;-1.118;2022-12-18T11:22:00;11.05;;;8.27;;
70667;SDS011;58242;51.250;-1.118;2022-12-18T11:24:29;15.23;;;9.50;;
70667;SDS011;58242;51.250;-1.118;2022-12-18T11:27:03;10.45;;;8.07;;
70667;SDS011;58242;51.250;-1.118;2022-12-18T11:32:19;15.05;;;10.57;;
70667;SDS011;58242;51.250;-1.118;2022-12-18T11:34:52;14.52;;;10.20;;
70667;SDS011;58242;51.250;-1.118;2022-12-18T11:37:24;12.27;;;8.68;;
70667;SDS011;58242;51.250;-1.118;2022-12-18T11:39:55;13.50;;;10.63;;
70667;SDS011;58242;51.250;-1.118;2022-12-18T11:42:32;16.92;;;10.10;;
70667;SDS011;58242;51.250;-1.118;2022-12-18T11:45:09;12.70;;;9.45;;
70667;SDS011;58242;51.250;-1.118;2022-12-18T11:53:01;15.95;;;8.75;;
70667;SDS011;58242;51.250;-1.118;2022-12-18T12:01:18;15.70;;;9.43;;
70667;SDS011;58242;51.250;-1.118;2022-12-18T12:17:53;10.20;;;8.05;;
70667;SDS011;58242;51.250;-1.118;2022-12-18T12:26:07;11.63;;;7.70;;
70667;SDS011;58242;51.250;-1.118;2022-12-18T12:38:54;7.20;;;6.43;;
70667;SDS011;58242;51.250;-1.118;2022-12-18T12:41:23;9.63;;;6.47;;
70667;SDS011;58242;51.250;-1.118;2022-12-18T12:44:13;9.75;;;6.15;;
70667;SDS011;58242;51.250;-1.118;2022-12-18T12:46:44;6.65;;;6.05;;
70667;SDS011;58242;51.250;-1.118;2022-12-18T12:49:17;7.45;;;6.65;;
70667;SDS011;58242;51.250;-1.118;2022-12-18T12:52:31;7.88;;;6.53;;
70667;SDS011;58242;51.250;-1.118;2022-12-18T12:54:38;9.52;;;7.97;;
70667;SDS011;58242;51.250;-1.118;2022-12-18T13:05:54;6.63;;;6.03;;
70667;SDS011;58242;51.250;-1.118;2022-12-18T13:08:25;5.70;;;5.30;;
70667;SDS011;58242;51.250;-1.118;2022-12-18T13:10:57;6.28;;;5.78;;
70667;SDS011;58242;51.250;-1.118;2022-12-18T13:13:54;5.53;;;5.03;;
70667;SDS011;58242;51.250;-1.118;2022-12-18T13:16:24;5.53;;;5.05;;
70667;SDS011;58242;51.250;-1.118;2022-12-18T13:18:55;4.97;;;4.60;;
70667;SDS011;58242;51.250;-1.118;2022-12-18T13:21:30;4.50;;;4.20;;
70667;SDS011;58242;51.250;-1.118;2022-12-18T13:23:57;4.40;;;4.10;;
70667;SDS011;58242;51.250;-1.118;2022-12-18T13:26:50;4.70;;;4.30;;
70667;SDS011;58242;51.250;-1.118;2022-12-18T13:32:24;5.55;;;3.95;;
70667;SDS011;58242;51.250;-1.118;2022-12-18T13:37:43;3.88;;;3.67;;
70667;SDS011;58242;51.250;-1.118;2022-12-18T13:40:59;4.22;;;3.95;;
70667;SDS011;58242;51.250;-1.118;2022-12-18T13:48:36;4.15;;;3.92;;
70667;SDS011;58242;51.250;-1.118;2022-12-18T13:51:04;4.05;;;3.83;;
70667;SDS011;58242;51.250;-1.118;2022-12-18T13:53:39;3.53;;;3.33;;
70667;SDS011;58242;51.250;-1.118;2022-12-18T13:56:09;4.03;;;3.83;;
70667;SDS011;58242;51.250;-1.118;2022-12-18T13:58:40;4.30;;;4.07;;
70667;SDS011;58242;51.250;-1.118;2022-12-18T14:01:15;3.80;;;3.60;;
70667;SDS011;58242;51.250;-1.118;2022-12-18T14:03:46;3.42;;;3.33;;
70667;SDS011;58242;51.250;-1.118;2022-12-18T14:06:12;4.30;;;4.10;;
70667;SDS011;58242;51.250;-1.118;2022-12-18T14:08:39;4.40;;;3.97;;
70667;SDS011;58242;51.250;-1.118;2022-12-18T14:11:06;3.25;;;3.15;;
70667;SDS011;58242;51.250;-1.118;2022-12-18T14:13:43;4.50;;;4.10;;
70667;SDS011;58242;51.250;-1.118;2022-12-18T14:16:11;4.22;;;3.95;;
70667;SDS011;58242;51.250;-1.118;2022-12-18T14:18:55;3.80;;;3.60;;
70667;SDS011;58242;51.250;-1.118;2022-12-18T14:21:23;3.72;;;3.42;;
70667;SDS011;58242;51.250;-1.118;2022-12-18T14:24:34;3.97;;;3.78;;
70667;SDS011;58242;51.250;-1.118;2022-12-18T14:26:41;3.58;;;3.40;;
70667;SDS011;58242;51.250;-1.118;2022-12-18T14:29:40;3.08;;;2.97;;
70667;SDS011;58242;51.250;-1.118;2022-12-18T14:34:32;3.78;;;3.58;;
70667;SDS011;58242;51.250;-1.118;2022-12-18T14:36:57;3.42;;;3.30;;
70667;SDS011;58242;51.250;-1.118;2022-12-18T14:39:22;3.85;;;3.65;;
70667;SDS011;58242;51.250;-1.118;2022-12-18T14:41:50;3.70;;;3.40;;
70667;SDS011;58242;51.250;-1.118;2022-12-18T14:44:15;3.53;;;3.25;;
70667;SDS011;58242;51.250;-1.118;2022-12-18T14:46:42;3.78;;;3.60;;
70667;SDS011;58242;51.250;-1.118;2022-12-18T14:52:40;3.40;;;3.30;;
70667;SDS011;58242;51.250;-1.118;2022-12-18T14:54:59;3.60;;;3.50;;
70667;SDS011;58242;51.250;-1.118;2022-12-18T14:57:25;3.58;;;3.47;;
70667;SDS011;58242;51.250;-1.118;2022-12-18T15:00:06;3.67;;;3.47;;
70667;SDS011;58242;51.250;-1.118;2022-12-18T15:02:36;3.85;;;3.75;;
70667;SDS011;58242;51.250;-1.118;2022-12-18T15:05:04;4.30;;;4.10;;
70667;SDS011;58242;51.250;-1.118;2022-12-18T15:10:32;4.00;;;3.80;;
70667;SDS011;58242;51.250;-1.118;2022-12-18T15:20:43;2.90;;;2.80;;
70667;SDS011;58242;51.250;-1.118;2022-12-18T15:25:57;3.00;;;2.90;;
70667;SDS011;58242;51.250;-1.118;2022-12-18T15:28:25;3.10;;;3.00;;
70667;SDS011;58242;51.250;-1.118;2022-12-18T15:33:41;2.90;;;2.80;;
70667;SDS011;58242;51.250;-1.118;2022-12-18T15:36:28;3.30;;;3.10;;
70667;SDS011;58242;51.250;-1.118;2022-12-18T15:38:55;3.50;;;3.22;;
70667;SDS011;58242;51.250;-1.118;2022-12-18T15:41:21;3.42;;;3.33;;
70667;SDS011;58242;51.250;-1.118;2022-12-18T15:43:48;3.83;;;3.40;;
70667;SDS011;58242;51.250;-1.118;2022-12-18T15:46:17;4.03;;;3.83;;
70667;SDS011;58242;51.250;-1.118;2022-12-18T15:53:43;3.80;;;3.60;;
70667;SDS011;58242;51.250;-1.118;2022-12-18T15:56:13;3.30;;;3.20;;
70667;SDS011;58242;51.250;-1.118;2022-12-18T15:58:57;3.30;;;3.20;;
70667;SDS011;58242;51.250;-1.118;2022-12-18T16:01:24;3.60;;;3.50;;
70667;SDS011;58242;51.250;-1.118;2022-12-18T16:03:51;3.58;;;3.38;;
70667;SDS011;58242;51.250;-1.118;2022-12-18T16:06:16;3.30;;;3.20;;
70667;SDS011;58242;51.250;-1.118;2022-12-18T16:08:41;3.58;;;3.47;;
70667;SDS011;58242;51.250;-1.118;2022-12-18T16:11:17;3.40;;;3.30;;
70667;SDS011;58242;51.250;-1.118;2022-12-18T16:16:43;3.58;;;3.45;;
70667;SDS011;58242;51.250;-1.118;2022-12-18T16:19:10;3.60;;;3.50;;
70667;SDS011;58242;51.250;-1.118;2022-12-18T16:21:35;3.28;;;3.17;;
70667;SDS011;58242;51.250;-1.118;2022-12-18T16:24:00;3.42;;;3.33;;
70667;SDS011;58242;51.250;-1.118;2022-12-18T16:26:26;3.90;;;3.63;;
70667;SDS011;58242;51.250;-1.118;2022-12-18T16:28:51;4.40;;;3.70;;
70667;SDS011;58242;51.250;-1.118;2022-12-18T16:31:18;3.80;;;3.70;;
70667;SDS011;58242;51.250;-1.118;2022-12-18T16:33:43;4.00;;;3.90;;
70667;SDS011;58242;51.250;-1.118;2022-12-18T16:36:08;3.90;;;3.70;;
70667;SDS011;58242;51.250;-1.118;2022-12-18T16:38:34;4.80;;;4.60;;
70667;SDS011;58242;51.250;-1.118;2022-12-18T16:40:59;4.28;;;4.07;;
70667;SDS011;58242;51.250;-1.118;2022-12-18T16:43:43;3.88;;;3.67;;
70667;SDS011;58242;51.250;-1.118;2022-12-18T16:46:08;4.30;;;4.13;;
70667;SDS011;58242;51.250;-1.118;2022-12-18T16:48:34;3.50;;;3.40;;
70667;SDS011;58242;51.250;-1.118;2022-12-18T16:51:03;4.07;;;3.97;;
70667;SDS011;58242;51.250;-1.118;2022-12-18T16:53:29;4.03;;;3.92;;
70667;SDS011;58242;51.250;-1.118;2022-12-18T16:55:57;3.75;;;3.65;;
70667;SDS011;58242;51.250;-1.118;2022-12-18T16:58:22;4.50;;;4.20;;
70667;SDS011;58242;51.250;-1.118;2022-12-18T17:00:48;4.13;;;3.95;;
70667;SDS011;58242;51.250;-1.118;2022-12-18T17:03:13;3.80;;;3.70;;
70667;SDS011;58242;51.250;-1.118;2022-12-18T17:05:38;4.25;;;4.10;;
70667;SDS011;58242;51.250;-1.118;2022-12-18T17:08:04;4.30;;;4.10;;
70667;SDS011;58242;51.250;-1.118;2022-12-18T17:10:29;3.90;;;3.80;;